createdAt,value
2022-09-20T00:02:18.002Z,98979.28
2022-09-20T00:04:44.428Z,98971.72
2022-09-20T00:07:10.851Z,98961.59
2022-09-20T00:09:37.208Z,98968.94
2022-09-20T00:12:03.760Z,98969.72
2022-09-20T00:14:30.667Z,98963.72
2022-09-20T00:16:57.062Z,98962.00
2022-09-20T00:19:23.491Z,98963.78
2022-09-20T00:21:49.933Z,98967.53
2022-09-20T00:24:16.386Z,98963.03
2022-09-20T00:26:42.743Z,98971.16
2022-09-20T00:29:09.244Z,98972.81
2022-09-20T00:31:39.051Z,98970.66
2022-09-20T00:34:24.453Z,98966.19
2022-09-20T00:36:50.835Z,98966.88
2022-09-20T00:39:17.303Z,98968.31
2022-09-20T00:41:44.967Z,98973.03
2022-09-20T00:44:46.044Z,98965.28
2022-09-20T00:47:28.611Z,98972.75
2022-09-20T00:50:21.778Z,98976.94
2022-09-20T00:52:53.739Z,98968.03
2022-09-20T00:55:21.466Z,98968.78
2022-09-20T00:57:48.327Z,98970.53
2022-09-20T01:00:15.244Z,98973.03
2022-09-20T01:02:47.215Z,98975.91
2022-09-20T01:05:15.759Z,98979.66
2022-09-20T01:07:44.215Z,98976.94
2022-09-20T01:10:10.623Z,98974.16
2022-09-20T01:12:40.287Z,98967.16
2022-09-20T01:15:08.256Z,98967.91
2022-09-20T01:17:37.999Z,98973.00
2022-09-20T01:20:22.656Z,98961.91
2022-09-20T01:23:01.262Z,98958.78
2022-09-20T01:25:47.318Z,98966.25
2022-09-20T01:28:15.237Z,98962.53
2022-09-20T01:30:51.144Z,98962.03
2022-09-20T01:33:28.122Z,98962.75
2022-09-20T01:35:57.245Z,98957.88
2022-09-20T01:38:42.283Z,98955.94
2022-09-20T01:41:15.442Z,98948.94
2022-09-20T01:44:03.427Z,98951.06
2022-09-20T01:46:33.504Z,98958.22
2022-09-20T01:49:44.093Z,98950.88
2022-09-20T01:52:36.449Z,98955.97
2022-09-20T01:55:20.778Z,98958.06
2022-09-20T01:57:59.624Z,98951.94
2022-09-20T02:00:30.990Z,98958.94
2022-09-20T02:03:09.528Z,98953.28
2022-09-20T02:05:46.449Z,98962.72
2022-09-20T02:08:31.112Z,98969.72
2022-09-20T02:11:25.580Z,98958.63
2022-09-20T02:14:45.627Z,98963.75
2022-09-20T02:17:37.900Z,98972.09
2022-09-20T02:20:18.787Z,98972.97
2022-09-20T02:23:20.645Z,98971.78
2022-09-20T02:25:57.572Z,98973.50
2022-09-20T02:29:01.214Z,98977.00
2022-09-20T02:31:50.680Z,98975.91
2022-09-20T02:34:35.386Z,98986.78
2022-09-20T02:37:21.680Z,98973.13
2022-09-20T02:40:19.922Z,98969.63
2022-09-20T02:43:05.035Z,98976.00
2022-09-20T02:45:41.913Z,98974.56
2022-09-20T02:48:08.655Z,98974.44
2022-09-20T02:50:52.437Z,98972.91
2022-09-20T02:53:46.189Z,98970.09
2022-09-20T02:56:21.068Z,98971.69
2022-09-20T02:59:11.672Z,98977.09
2022-09-20T03:01:50.610Z,98982.78
2022-09-20T03:05:06.993Z,98983.66
2022-09-20T03:08:15.584Z,98980.03
2022-09-20T03:11:03.714Z,98983.28
2022-09-20T03:13:43.672Z,98989.31
2022-09-20T03:16:21.381Z,98986.66
2022-09-20T03:19:17.135Z,98987.50
2022-09-20T03:21:57.744Z,98978.81
2022-09-20T03:24:55.072Z,98983.50
2022-09-20T03:27:49.965Z,98990.63
2022-09-20T03:30:22.370Z,98987.59
2022-09-20T03:33:15.227Z,98985.44
2022-09-20T03:36:22.998Z,98988.47
2022-09-20T03:39:07.457Z,98990.00
2022-09-20T03:42:02.662Z,98992.38
2022-09-20T03:45:01.366Z,98983.94
2022-09-20T03:47:47.927Z,98989.50
2022-09-20T03:50:46.390Z,98986.84
2022-09-20T03:53:27.785Z,98987.44
2022-09-20T03:56:31.039Z,98987.34
2022-09-20T03:58:57.365Z,98992.63
2022-09-20T04:01:48.742Z,98998.78
2022-09-20T04:04:50.846Z,98995.28
2022-09-20T04:07:40.739Z,98999.06
2022-09-20T04:10:32.371Z,98998.22
2022-09-20T04:13:19.876Z,99003.16
2022-09-20T04:15:59.291Z,99005.25
2022-09-20T04:18:58.179Z,99005.47
2022-09-20T04:21:34.376Z,98998.97
2022-09-20T04:24:15.923Z,99006.66
2022-09-20T04:26:50.984Z,99001.00
2022-09-20T04:29:32.487Z,98992.22
2022-09-20T04:32:17.802Z,98996.81
2022-09-20T04:35:10.851Z,98994.63
2022-09-20T04:37:38.398Z,99005.41
2022-09-20T04:40:43.668Z,99007.19
2022-09-20T04:43:39.542Z,99001.59
2022-09-20T04:46:41.196Z,99010.03
2022-09-20T04:49:33.623Z,99006.16
2022-09-20T04:52:26.169Z,99012.97
2022-09-20T04:55:06.046Z,99002.75
2022-09-20T04:57:44.232Z,99008.38
2022-09-20T05:00:16.858Z,99013.56
2022-09-20T05:02:55.396Z,99017.66
2022-09-20T05:05:46.539Z,99019.13
2022-09-20T05:08:22.976Z,99016.38
2022-09-20T05:11:10.955Z,99022.50
2022-09-20T05:14:13.748Z,99016.47
2022-09-20T05:16:58.956Z,99024.44
2022-09-20T05:19:28.341Z,99025.16
2022-09-20T05:22:06.713Z,99028.31
2022-09-20T05:25:01.108Z,99028.09
2022-09-20T05:28:04.952Z,99030.53
2022-09-20T05:30:39.579Z,99034.50
2022-09-20T05:33:15.376Z,99040.09
2022-09-20T05:36:17.330Z,99036.09
2022-09-20T05:39:02.781Z,99037.94
2022-09-20T05:41:48.177Z,99039.72
2022-09-20T05:44:23.448Z,99042.44
2022-09-20T05:47:08.231Z,99038.94
2022-09-20T05:50:08.467Z,99044.72
2022-09-20T05:52:52.840Z,99047.63
2022-09-20T05:56:02.677Z,99052.16
2022-09-20T05:59:02.112Z,99054.34
2022-09-20T06:01:40.095Z,99050.72
2022-09-20T06:04:17.942Z,99051.38
2022-09-20T06:06:53.704Z,99056.63
2022-09-20T06:09:42.640Z,99049.38
2022-09-20T06:12:15.160Z,99051.78
2022-09-20T06:15:11.288Z,99059.16
2022-09-20T06:17:48.078Z,99047.31
2022-09-20T06:20:33.057Z,99053.28
2022-09-20T06:23:03.770Z,99053.84
2022-09-20T06:25:33.279Z,99061.47
2022-09-20T06:28:20.993Z,99064.00
2022-09-20T06:30:49.969Z,99064.88
2022-09-20T06:33:28.375Z,99069.97
2022-09-20T06:36:21.408Z,99063.56
2022-09-20T06:39:26.629Z,99069.66
2022-09-20T06:41:54.387Z,99080.19
2022-09-20T06:44:20.778Z,99080.63
2022-09-20T06:46:47.645Z,99086.72
2022-09-20T06:49:14.016Z,99092.28
2022-09-20T06:51:41.365Z,99092.19
2022-09-20T06:54:17.156Z,99092.28
2022-09-20T06:56:45.496Z,99090.28
2022-09-20T06:59:12.758Z,99089.09
2022-09-20T07:01:39.401Z,99086.38
2022-09-20T07:04:06.440Z,99082.78
2022-09-20T07:06:33.481Z,99081.59
2022-09-20T07:08:59.918Z,99080.16
2022-09-20T07:11:26.516Z,99080.34
2022-09-20T07:13:55.242Z,99084.44
2022-09-20T07:16:22.127Z,99079.91
2022-09-20T07:18:49.070Z,99090.66
2022-09-20T07:21:17.738Z,99085.34
2022-09-20T07:23:48.541Z,99085.06
2022-09-20T07:26:25.743Z,99089.84
2022-09-20T07:28:52.877Z,99096.13
2022-09-20T07:31:25.591Z,99098.84
2022-09-20T07:33:52.182Z,99089.75
2022-09-20T07:36:18.871Z,99098.19
2022-09-20T07:38:50.323Z,99093.50
2022-09-20T07:41:22.678Z,99098.22
2022-09-20T07:43:50.720Z,99100.63
2022-09-20T07:46:17.306Z,99104.19
2022-09-20T07:48:44.190Z,99102.72
2022-09-20T07:51:13.441Z,99104.53
2022-09-20T07:53:40.871Z,99111.91
2022-09-20T07:56:11.516Z,99113.25
2022-09-20T07:58:38.393Z,99111.97
2022-09-20T08:01:13.290Z,99107.25
2022-09-20T08:03:40.418Z,99110.31
2022-09-20T08:06:09.628Z,99114.50
2022-09-20T08:08:43.426Z,99107.41
2022-09-20T08:11:16.140Z,99112.28
2022-09-20T08:16:43.300Z,99126.31
2022-09-20T08:19:15.369Z,99131.09
2022-09-20T08:21:41.851Z,99131.75
2022-09-20T08:24:08.279Z,99136.06
2022-09-20T08:26:37.579Z,99128.56
2022-09-20T08:29:05.896Z,99127.63
2022-09-20T08:31:35.410Z,99129.38
2022-09-20T08:34:03.799Z,99134.41
2022-09-20T08:36:36.111Z,99133.13
2022-09-20T08:42:06.254Z,99125.88
2022-09-20T08:44:45.420Z,99122.06
2022-09-20T08:47:25.004Z,99117.91
2022-09-20T08:49:57.634Z,99120.94
2022-09-20T08:52:37.093Z,99121.06
2022-09-20T08:55:27.901Z,99125.91
2022-09-20T08:57:56.854Z,99127.06
2022-09-20T09:00:27.782Z,99125.69
2022-09-20T09:02:57.069Z,99130.41
2022-09-20T09:05:44.021Z,99136.56
2022-09-20T09:08:28.104Z,99130.13
2022-09-20T09:11:02.051Z,99134.81
2022-09-20T09:13:37.426Z,99123.91
2022-09-20T09:16:13.013Z,99123.16
2022-09-20T09:18:42.396Z,99113.53
2022-09-20T09:21:17.576Z,99120.75
2022-09-20T09:24:06.107Z,99117.59
2022-09-20T09:26:40.765Z,99120.56
2022-09-20T09:29:18.060Z,99119.88
2022-09-20T09:31:50.652Z,99117.13
2022-09-20T09:34:36.088Z,99120.00
2022-09-20T09:37:02.763Z,99114.06
2022-09-20T09:39:35.840Z,99120.84
2022-09-20T09:42:25.786Z,99116.69
2022-09-20T09:44:52.304Z,99109.59
2022-09-20T09:47:29.234Z,99103.06
2022-09-20T09:50:02.656Z,99105.81
2022-09-20T09:52:33.283Z,99101.88
2022-09-20T09:55:05.143Z,99099.66
2022-09-20T09:57:37.896Z,99095.59
2022-09-20T10:00:22.034Z,99096.41
2022-09-20T10:03:04.031Z,99098.06
2022-09-20T10:05:40.762Z,99091.19
2022-09-20T10:08:39.656Z,99091.41
2022-09-20T10:11:30.113Z,99092.19
2022-09-20T10:14:38.032Z,99092.88
2022-09-20T10:17:23.172Z,99082.78
2022-09-20T10:20:14.709Z,99090.06
2022-09-20T10:23:06.817Z,99083.44
2022-09-20T10:26:08.637Z,99090.44
2022-09-20T10:28:54.497Z,99092.38
2022-09-20T10:31:33.261Z,99083.63
2022-09-20T10:34:14.118Z,99080.97
2022-09-20T10:36:51.590Z,99087.19
2022-09-20T10:39:33.363Z,99083.31
2022-09-20T10:43:00.927Z,99085.09
2022-09-20T10:46:14.497Z,99080.00
2022-09-20T10:48:48.539Z,99085.31
2022-09-20T10:51:35.121Z,99083.31
2022-09-20T10:54:23.621Z,99087.38
2022-09-20T10:56:56.200Z,99086.00
2022-09-20T10:59:36.957Z,99081.50
2022-09-20T11:02:21.526Z,99080.25
2022-09-20T11:05:26.157Z,99091.03
2022-09-20T11:08:05.974Z,99088.34
2022-09-20T11:10:42.378Z,99085.44
2022-09-20T11:13:27.675Z,99090.84
2022-09-20T11:16:18.288Z,99081.97
2022-09-20T11:18:54.634Z,99074.66
2022-09-20T11:21:34.019Z,99068.91
2022-09-20T11:24:23.535Z,99076.13
2022-09-20T11:27:25.197Z,99077.97
2022-09-20T11:30:06.140Z,99083.47
2022-09-20T11:32:46.677Z,99084.34
2022-09-20T11:35:16.028Z,99092.34
2022-09-20T11:37:53.074Z,99101.59
2022-09-20T11:40:26.872Z,99106.81
2022-09-20T11:42:59.149Z,99118.75
2022-09-20T11:45:28.573Z,99119.13
2022-09-20T11:48:02.788Z,99121.69
2022-09-20T11:51:01.012Z,99121.22
2022-09-20T11:54:12.559Z,99124.63
2022-09-20T11:56:39.937Z,99120.25
2022-09-20T11:59:22.333Z,99121.47
2022-09-20T12:01:48.834Z,99105.28
2022-09-20T12:04:32.295Z,99105.38
2022-09-20T12:07:10.531Z,99093.56
2022-09-20T12:09:42.691Z,99094.03
2022-09-20T12:12:32.694Z,99083.03
2022-09-20T12:15:02.302Z,99082.88
2022-09-20T12:17:46.930Z,99087.00
2022-09-20T12:20:35.231Z,99082.16
2022-09-20T12:23:42.258Z,99084.84
2022-09-20T12:26:15.706Z,99084.75
2022-09-20T12:28:50.048Z,99085.50
2022-09-20T12:31:22.233Z,99087.81
2022-09-20T12:34:16.032Z,99079.94
2022-09-20T12:36:46.543Z,99074.28
2022-09-20T12:39:16.262Z,99072.81
2022-09-20T12:42:04.427Z,99071.41
2022-09-20T12:44:44.505Z,99075.78
2022-09-20T12:47:10.857Z,99060.16
2022-09-20T12:50:02.144Z,99071.25
2022-09-20T12:52:58.438Z,99063.81
2022-09-20T12:55:30.789Z,99073.31
2022-09-20T12:58:17.115Z,99060.03
2022-09-20T13:00:46.773Z,99062.72
2022-09-20T13:03:21.582Z,99059.34
2022-09-20T13:05:52.563Z,99063.66
2022-09-20T13:08:25.192Z,99061.06
2022-09-20T13:11:06.816Z,99064.25
2022-09-20T13:13:55.631Z,99071.41
2022-09-20T13:16:28.885Z,99063.97
2022-09-20T13:19:22.777Z,99073.03
2022-09-20T13:22:14.842Z,99070.97
2022-09-20T13:24:45.007Z,99072.34
2022-09-20T13:27:21.026Z,99075.03
2022-09-20T13:29:47.550Z,99074.94
2022-09-20T13:32:31.520Z,99084.50
2022-09-20T13:35:10.014Z,99083.44
2022-09-20T13:37:52.790Z,99081.44
2022-09-20T13:40:33.733Z,99074.66
2022-09-20T13:43:22.554Z,99076.91
2022-09-20T13:45:53.876Z,99072.59
2022-09-20T13:48:24.817Z,99070.75
2022-09-20T13:50:53.657Z,99084.28
2022-09-20T13:53:40.180Z,99083.53
2022-09-20T13:56:19.454Z,99080.88
2022-09-20T13:58:46.128Z,99081.38
2022-09-20T14:01:44.177Z,99075.53
2022-09-20T14:04:16.266Z,99079.69
2022-09-20T14:06:42.770Z,99083.88
2022-09-20T14:09:28.686Z,99075.44
2022-09-20T14:11:56.098Z,99076.06
2022-09-20T14:14:24.792Z,99089.34
2022-09-20T14:16:53.054Z,99087.75
2022-09-20T14:19:22.933Z,99081.00
2022-09-20T14:21:49.834Z,99075.06
2022-09-20T14:24:16.519Z,99083.47
2022-09-20T14:26:59.382Z,99075.22
2022-09-20T14:29:30.733Z,99078.72
2022-09-20T14:32:06.257Z,99081.19
2022-09-20T14:34:37.795Z,99084.38
2022-09-20T14:37:13.601Z,99081.75
2022-09-20T14:39:53.889Z,99080.09
2022-09-20T14:42:41.755Z,99078.03
2022-09-20T14:45:20.251Z,99079.84
2022-09-20T14:47:57.375Z,99085.06
2022-09-20T14:50:28.807Z,99082.31
2022-09-20T14:53:21.490Z,99076.94
2022-09-20T14:56:09.491Z,99084.59
2022-09-20T14:59:13.950Z,99077.50
2022-09-20T15:01:44.985Z,99077.63
2022-09-20T15:04:22.877Z,99075.88
2022-09-20T15:06:50.721Z,99085.31
2022-09-20T15:09:19.259Z,99088.41
2022-09-20T15:11:45.741Z,99076.28
2022-09-20T15:14:12.315Z,99079.19
2022-09-20T15:16:38.868Z,99077.69
2022-09-20T15:19:07.943Z,99069.09
2022-09-20T15:21:34.334Z,99073.59
2022-09-20T15:24:00.949Z,99078.78
2022-09-20T15:26:27.330Z,99075.53
2022-09-20T15:28:54.004Z,99069.84
2022-09-20T15:31:21.149Z,99076.84
2022-09-20T15:33:47.764Z,99079.78
2022-09-20T15:36:15.296Z,99074.19
2022-09-20T15:38:41.672Z,99076.13
2022-09-20T15:41:08.162Z,99070.59
2022-09-20T15:43:34.581Z,99082.91
2022-09-20T15:46:17.721Z,99082.91
2022-09-20T15:48:44.089Z,99081.38
2022-09-20T15:51:11.634Z,99085.28
2022-09-20T15:53:44.975Z,99082.94
2022-09-20T15:56:21.032Z,99092.00
2022-09-20T15:58:50.435Z,99086.28
2022-09-20T16:01:18.404Z,99085.09
2022-09-20T16:03:46.098Z,99082.06
2022-09-20T16:06:13.257Z,99088.06
2022-09-20T16:08:41.569Z,99089.25
2022-09-20T16:11:14.383Z,99091.94
2022-09-20T16:13:40.948Z,99102.41
2022-09-20T16:16:09.824Z,99098.03
2022-09-20T16:18:55.297Z,99097.34
2022-09-20T16:21:22.112Z,99104.06
2022-09-20T16:23:51.417Z,99109.13
2022-09-20T16:26:19.586Z,99108.94
2022-09-20T16:28:47.732Z,99108.28
2022-09-20T16:31:32.702Z,99117.69
2022-09-20T16:34:03.782Z,99132.41
2022-09-20T16:36:31.620Z,99140.63
2022-09-20T16:38:58.562Z,99120.59
2022-09-20T16:41:27.095Z,99125.31
2022-09-20T16:43:53.922Z,99128.28
2022-09-20T16:46:22.610Z,99129.31
2022-09-20T16:48:53.028Z,99135.97
2022-09-20T16:51:25.551Z,99133.97
2022-09-20T16:53:55.659Z,99134.91
2022-09-20T16:56:24.573Z,99140.38
2022-09-20T16:58:51.658Z,99136.25
2022-09-20T17:01:18.602Z,99140.91
2022-09-20T17:03:45.996Z,99136.38
2022-09-20T17:06:14.500Z,99138.38
2022-09-20T17:08:42.140Z,99145.13
2022-09-20T17:11:10.556Z,99139.56
2022-09-20T17:13:41.525Z,99137.44
2022-09-20T17:16:37.828Z,99137.72
2022-09-20T17:19:10.933Z,99135.28
2022-09-20T17:21:40.076Z,99147.66
2022-09-20T17:24:07.612Z,99147.94
2022-09-20T17:26:37.545Z,99149.50
2022-09-20T17:29:06.555Z,99142.66
2022-09-20T17:31:39.161Z,99150.25
2022-09-20T17:34:09.386Z,99157.00
2022-09-20T17:36:42.011Z,99160.38
2022-09-20T17:39:10.952Z,99153.63
2022-09-20T17:41:38.811Z,99170.22
2022-09-20T17:44:09.808Z,99168.97
2022-09-20T17:46:39.247Z,99179.22
2022-09-20T17:49:11.832Z,99183.03
2022-09-20T17:51:43.676Z,99179.53
2022-09-20T17:54:14.333Z,99186.81
2022-09-20T17:56:46.382Z,99181.06
2022-09-20T17:59:17.200Z,99176.84
2022-09-20T18:01:45.752Z,99180.22
2022-09-20T18:04:12.966Z,99188.63
2022-09-20T18:06:47.016Z,99184.00
2022-09-20T18:09:18.389Z,99196.34
2022-09-20T18:11:49.004Z,99191.59
2022-09-20T18:14:24.035Z,99197.88
2022-09-20T18:16:55.874Z,99199.88
2022-09-20T18:19:22.839Z,99210.41
2022-09-20T18:21:49.993Z,99210.94
2022-09-20T18:24:16.465Z,99217.28
2022-09-20T18:26:44.036Z,99215.44
2022-09-20T18:29:12.641Z,99216.53
2022-09-20T18:31:43.208Z,99220.22
2022-09-20T18:34:17.741Z,99224.59
2022-09-20T18:36:47.786Z,99225.31
2022-09-20T18:39:14.366Z,99225.00
2022-09-20T18:41:43.935Z,99228.78
2022-09-20T18:44:14.090Z,99230.47
2022-09-20T18:46:40.764Z,99233.00
2022-09-20T18:49:09.315Z,99242.97
2022-09-20T18:51:39.792Z,99240.25
2022-09-20T18:54:11.209Z,99238.44
2022-09-20T18:56:40.065Z,99237.19
2022-09-20T18:59:24.992Z,99244.06
2022-09-20T19:01:54.961Z,99245.63
2022-09-20T19:04:39.940Z,99250.88
2022-09-20T19:07:24.802Z,99256.91
2022-09-20T19:10:06.037Z,99249.31
2022-09-20T19:12:39.284Z,99258.88
2022-09-20T19:15:21.325Z,99259.84
2022-09-20T19:18:11.208Z,99265.34
2022-09-20T19:20:53.441Z,99271.94
2022-09-20T19:24:03.266Z,99268.00
2022-09-20T19:26:31.881Z,99272.91
2022-09-20T19:29:00.131Z,99280.75
2022-09-20T19:31:28.145Z,99277.25
2022-09-20T19:33:56.790Z,99280.56
2022-09-20T19:36:25.467Z,99286.91
2022-09-20T19:39:09.572Z,99290.41
2022-09-20T19:41:46.140Z,99290.69
2022-09-20T19:44:32.289Z,99299.13
2022-09-20T19:47:20.972Z,99295.59
2022-09-20T19:49:56.182Z,99300.53
2022-09-20T19:52:23.767Z,99312.03
2022-09-20T19:54:51.636Z,99313.44
2022-09-20T19:57:39.705Z,99318.22
2022-09-20T20:00:09.470Z,99314.81
2022-09-20T20:02:36.318Z,99321.88
2022-09-20T20:05:03.678Z,99327.50
2022-09-20T20:07:41.236Z,99317.72
2022-09-20T20:10:25.781Z,99322.25
2022-09-20T20:13:52.512Z,99316.72
2022-09-20T20:16:39.189Z,99317.97
2022-09-20T20:19:23.462Z,99321.75
2022-09-20T20:21:57.581Z,99320.03
2022-09-20T20:24:36.786Z,99325.97
2022-09-20T20:27:03.965Z,99322.31
2022-09-20T20:29:30.391Z,99319.56
2022-09-20T20:31:56.802Z,99315.81
2022-09-20T20:34:24.381Z,99322.50
2022-09-20T20:36:52.353Z,99326.66
2022-09-20T20:39:18.744Z,99321.56
2022-09-20T20:41:52.349Z,99331.44
2022-09-20T20:44:20.741Z,99328.03
2022-09-20T20:46:47.919Z,99325.53
2022-09-20T20:49:15.405Z,99330.47
2022-09-20T20:51:42.044Z,99332.84
2022-09-20T20:54:10.028Z,99331.72
2022-09-20T20:56:36.480Z,99341.69
2022-09-20T20:59:04.506Z,99339.41
2022-09-20T21:01:32.809Z,99347.38
2022-09-20T21:04:00.177Z,99344.25
2022-09-20T21:06:29.507Z,99337.63
2022-09-20T21:08:56.742Z,99347.69
2022-09-20T21:11:25.865Z,99346.28
2022-09-20T21:13:57.694Z,99352.00
2022-09-20T21:16:26.969Z,99344.41
2022-09-20T21:18:53.411Z,99346.34
2022-09-20T21:21:29.817Z,99347.56
2022-09-20T21:23:58.240Z,99341.34
2022-09-20T21:26:27.686Z,99348.41
2022-09-20T21:28:59.511Z,99360.06
2022-09-20T21:31:30.829Z,99356.22
2022-09-20T21:33:57.659Z,99361.44
2022-09-20T21:36:26.867Z,99360.63
2022-09-20T21:38:53.712Z,99360.75
2022-09-20T21:41:25.110Z,99362.84
2022-09-20T21:43:53.824Z,99362.00
2022-09-20T21:46:22.996Z,99365.88
2022-09-20T21:48:50.527Z,99356.22
2022-09-20T21:51:18.540Z,99363.56
2022-09-20T21:53:45.286Z,99363.25
2022-09-20T21:56:14.524Z,99365.16
2022-09-20T21:58:41.156Z,99361.88
2022-09-20T22:01:13.935Z,99368.06
2022-09-20T22:03:45.321Z,99375.66
2022-09-20T22:06:19.205Z,99367.56
2022-09-20T22:08:50.685Z,99372.25
2022-09-20T22:11:18.481Z,99370.03
2022-09-20T22:13:47.272Z,99368.88
2022-09-20T22:16:19.168Z,99367.31
2022-09-20T22:18:46.787Z,99365.28
2022-09-20T22:21:21.941Z,99365.63
2022-09-20T22:23:50.611Z,99368.16
2022-09-20T22:26:20.093Z,99363.09
2022-09-20T22:28:49.630Z,99368.94
2022-09-20T22:31:37.437Z,99358.19
2022-09-20T22:34:07.164Z,99361.56
2022-09-20T22:36:36.507Z,99355.53
2022-09-20T22:39:04.383Z,99370.94
2022-09-20T22:41:30.940Z,99377.91
2022-09-20T22:43:57.348Z,99373.03
2022-09-20T22:46:26.960Z,99368.75
2022-09-20T22:48:53.564Z,99376.72
2022-09-20T22:51:25.228Z,99379.38
2022-09-20T22:53:52.659Z,99382.91
2022-09-20T22:56:29.227Z,99385.72
2022-09-20T22:58:56.847Z,99382.75
2022-09-20T23:01:26.925Z,99382.03
2022-09-20T23:03:56.359Z,99380.09
2022-09-20T23:06:26.707Z,99385.13
2022-09-20T23:08:55.841Z,99385.56
2022-09-20T23:11:23.411Z,99383.47
2022-09-20T23:13:54.745Z,99383.91
2022-09-20T23:16:23.888Z,99389.94
2022-09-20T23:18:51.373Z,99382.69
2022-09-20T23:21:18.188Z,99387.91
2022-09-20T23:23:45.287Z,99388.34
2022-09-20T23:26:17.218Z,99379.75
2022-09-20T23:28:46.208Z,99389.31
2022-09-20T23:31:15.717Z,99385.47
2022-09-20T23:33:54.658Z,99388.44
2022-09-20T23:36:22.157Z,99394.59
2022-09-20T23:38:49.356Z,99394.00
2022-09-20T23:41:18.132Z,99388.69
2022-09-20T23:43:44.978Z,99391.09
2022-09-20T23:46:13.556Z,99397.25
2022-09-20T23:48:44.066Z,99378.81
2022-09-20T23:51:15.160Z,99388.47
2022-09-20T23:53:42.813Z,99383.50
2022-09-20T23:56:10.486Z,99394.59
2022-09-20T23:58:38.785Z,99395.97
